Time;durP1;ratioP1;P1;durP2;ratioP2;P2;SDS_P1;SDS_P2;PMS_P1;PMS_P2;Temp;Humidity;BMP_temperature;BMP_pressure;BME280_temperature;BME280_humidity;BME280_pressure;Samples;Min_cycle;Max_cycle;Signal;HPM_P1;HPM_P2
2023/01/10 00:00:49;;;;;;;21.90;15.27;;;;;;;4.78;100.00;94108.44;5054572;28;20503;-89
2023/01/10 00:03:18;;;;;;;26.63;16.03;;;;;;;4.70;100.00;94113.38;5054997;28;20445;-89
2023/01/10 00:05:45;;;;;;;26.37;15.00;;;;;;;4.65;100.00;94102.50;5055272;28;20453;-89
2023/01/10 00:08:16;;;;;;;25.10;15.27;;;;;;;4.72;100.00;94105.47;5054445;28;20449;-88
2023/01/10 00:10:42;;;;;;;36.23;16.03;;;;;;;4.72;100.00;94098.50;5054837;28;20449;-89
2023/01/10 00:13:22;;;;;;;29.90;18.03;;;;;;;4.73;100.00;94089.75;5054599;28;20436;-88
2023/01/10 00:15:51;;;;;;;35.33;18.40;;;;;;;4.68;100.00;94081.50;5055708;28;20793;-89
2023/01/10 00:18:18;;;;;;;29.50;17.40;;;;;;;4.47;100.00;94083.06;5055099;28;20483;-89
2023/01/10 00:20:45;;;;;;;33.43;16.53;;;;;;;4.26;100.00;94077.69;5055467;28;20442;-89
2023/01/10 00:23:12;;;;;;;27.03;13.77;;;;;;;4.24;100.00;94080.41;5055617;28;20461;-89
2023/01/10 00:25:41;;;;;;;23.03;13.70;;;;;;;4.13;100.00;94087.31;5054512;28;20456;-89
2023/01/10 00:28:18;;;;;;;24.00;14.87;;;;;;;4.16;100.00;94090.53;5054591;28;20924;-88
2023/01/10 00:30:50;;;;;;;26.23;14.43;;;;;;;4.10;100.00;94090.97;5054793;28;20453;-89
2023/01/10 00:33:19;;;;;;;22.70;15.30;;;;;;;4.40;100.00;94100.06;5054550;28;20484;-88
2023/01/10 00:35:46;;;;;;;39.50;19.83;;;;;;;4.52;100.00;94092.19;5054512;28;20488;-89
2023/01/10 00:38:13;;;;;;;38.50;22.20;;;;;;;4.71;100.00;94086.44;5054033;28;20928;-88
2023/01/10 00:40:40;;;;;;;38.17;18.40;;;;;;;4.81;100.00;94083.97;5054451;28;20896;-88
2023/01/10 00:45:53;;;;;;;36.60;18.90;;;;;;;4.84;100.00;94061.19;5054157;28;20416;-88
2023/01/10 00:48:22;;;;;;;28.53;17.20;;;;;;;4.85;100.00;94068.03;5054817;28;20461;-88
2023/01/10 00:50:48;;;;;;;32.50;18.50;;;;;;;4.87;100.00;94060.94;5054470;28;20472;-89
2023/01/10 00:53:15;;;;;;;31.67;18.30;;;;;;;4.98;100.00;94073.97;5054145;28;20473;-89
2023/01/10 00:55:42;;;;;;;30.40;18.20;;;;;;;5.13;100.00;94076.34;5054524;28;20849;-89
2023/01/10 00:58:10;;;;;;;33.13;20.73;;;;;;;5.24;100.00;94081.56;5054069;28;20485;-88
2023/01/10 01:00:37;;;;;;;28.90;18.97;;;;;;;5.26;100.00;94056.25;5054376;28;20457;-88
2023/01/10 01:03:05;;;;;;;25.50;17.13;;;;;;;5.31;100.00;94059.31;5062519;28;20472;-89
2023/01/10 01:05:34;;;;;;;24.50;15.80;;;;;;;5.35;99.62;94065.13;5066844;28;20479;-89
2023/01/10 01:08:01;;;;;;;31.83;16.50;;;;;;;5.32;99.45;94071.38;5062940;28;20796;-88
2023/01/10 01:10:26;;;;;;;32.10;17.20;;;;;;;5.35;99.70;94059.91;5057964;28;20449;-89
2023/01/10 01:12:54;;;;;;;41.60;20.80;;;;;;;5.33;99.76;94044.44;5057433;28;20464;-89
2023/01/10 01:15:21;;;;;;;25.73;16.50;;;;;;;5.25;99.04;94045.03;5057790;28;20198;-89
2023/01/10 01:17:48;;;;;;;28.00;18.33;;;;;;;5.29;100.00;94054.25;5058097;28;20573;-89
2023/01/10 01:20:16;;;;;;;26.97;17.73;;;;;;;5.34;100.00;94055.66;5057452;28;20451;-89
2023/01/10 01:22:47;;;;;;;27.63;14.83;;;;;;;5.24;99.62;94055.56;5057729;28;20460;-89
2023/01/10 01:25:14;;;;;;;22.57;15.63;;;;;;;5.25;99.99;94065.84;5057260;28;20492;-88
2023/01/10 01:27:41;;;;;;;32.13;17.23;;;;;;;5.27;99.62;94063.94;5057266;28;20468;-89
2023/01/10 01:30:10;;;;;;;34.97;18.50;;;;;;;5.31;100.00;94066.31;5057803;28;20449;-89
2023/01/10 01:32:37;;;;;;;33.53;18.13;;;;;;;5.35;99.29;94081.56;5057249;28;20456;-88
2023/01/10 01:35:04;;;;;;;27.70;17.07;;;;;;;5.42;99.68;94076.69;5057385;28;20454;-89
2023/01/10 01:37:32;;;;;;;39.10;23.40;;;;;;;5.37;99.53;94068.41;5056986;28;20802;-89
2023/01/10 01:40:00;;;;;;;28.87;17.07;;;;;;;5.32;99.56;94060.97;5057453;28;20469;-89
2023/01/10 01:42:31;;;;;;;22.60;15.23;;;;;;;5.36;99.14;94059.78;5056746;28;20449;-89
2023/01/10 01:45:34;;;;;;;32.47;16.20;;;;;;;5.47;99.67;94041.56;5057325;28;20461;-89
2023/01/10 01:51:27;;;;;;;31.73;16.77;;;;;;;5.57;98.55;94049.50;5055864;28;20486;-88
2023/01/10 01:53:59;;;;;;;31.93;17.70;;;;;;;5.44;98.57;94049.59;5056997;28;20882;-89
2023/01/10 01:56:31;;;;;;;28.17;17.27;;;;;;;5.45;98.83;94047.81;5057249;28;20472;-89
2023/01/10 01:59:02;;;;;;;29.80;17.13;;;;;;;5.51;99.42;94040.41;5056519;28;20473;-89
2023/01/10 02:01:31;;;;;;;24.97;15.50;;;;;;;5.54;99.79;94042.75;5056546;28;20502;-89
2023/01/10 02:04:03;;;;;;;31.33;19.67;;;;;;;5.53;98.66;94028.09;5055593;28;20478;-89
2023/01/10 02:06:30;;;;;;;28.60;17.87;;;;;;;5.71;99.33;94032.75;5056984;28;20229;-90
2023/01/10 02:09:03;;;;;;;27.47;18.23;;;;;;;5.77;98.26;94024.47;5057133;28;20449;-89
2023/01/10 02:11:32;;;;;;;32.17;18.00;;;;;;;5.74;98.02;94024.72;5056846;28;20472;-90
2023/01/10 02:14:00;;;;;;;25.03;16.90;;;;;;;5.69;97.65;94019.06;5056674;28;20444;-89
2023/01/10 02:16:27;;;;;;;29.77;16.20;;;;;;;5.51;98.58;93988.34;5056645;28;20460;-89
2023/01/10 02:18:54;;;;;;;26.83;16.57;;;;;;;5.55;98.59;93976.75;5055504;28;20485;-89
2023/01/10 02:22:05;;;;;;;31.63;17.40;;;;;;;5.35;99.91;93976.66;5056630;28;20448;-89
2023/01/10 02:25:09;;;;;;;29.00;15.77;;;;;;;5.43;99.10;93987.28;5056534;28;20453;-89
2023/01/10 02:27:50;;;;;;;29.10;18.00;;;;;;;5.49;98.82;93985.06;4995257;28;20563;-89
2023/01/10 02:31:01;;;;;;;35.00;18.40;;;;;;;5.49;98.67;93981.59;4994928;28;20448;-89
2023/01/10 02:33:31;;;;;;;36.53;17.97;;;;;;;5.45;99.22;93981.00;4936466;29;20458;-89
2023/01/10 02:36:10;;;;;;;28.40;16.50;;;;;;;5.50;99.55;93965.88;4936986;29;21344;-89
2023/01/10 02:38:49;;;;;;;28.43;15.10;;;;;;;5.52;99.34;93965.75;4937219;29;21092;-89
2023/01/10 02:41:26;;;;;;;22.73;16.67;;;;;;;5.50;98.97;93960.69;4937036;29;20485;-89
2023/01/10 02:43:58;;;;;;;26.10;18.57;;;;;;;5.44;99.71;93970.72;4922260;29;20541;-89
2023/01/10 02:46:29;;;;;;;25.77;17.17;;;;;;;5.32;98.50;93982.94;4936690;29;20510;-89
2023/01/10 02:48:58;;;;;;;30.03;18.00;;;;;;;5.22;99.39;93972.44;4936907;29;20937;-89
2023/01/10 02:51:27;;;;;;;26.53;15.40;;;;;;;5.14;99.82;93984.38;4936819;29;20518;-89
2023/01/10 02:53:59;;;;;;;31.20;17.50;;;;;;;5.05;100.00;93974.69;4936702;29;20494;-89
2023/01/10 02:56:42;;;;;;;37.77;21.90;;;;;;;5.02;100.00;93977.53;4936447;29;20451;-89
2023/01/10 02:59:27;;;;;;;30.67;17.27;;;;;;;4.92;100.00;93991.25;4936488;29;20478;-89
2023/01/10 03:01:59;;;;;;;27.00;15.77;;;;;;;4.81;100.00;93988.66;4936329;29;20552;-89
2023/01/10 03:04:44;;;;;;;32.23;16.63;;;;;;;4.79;100.00;93993.13;4963618;28;20854;-89
2023/01/10 03:07:20;;;;;;;26.23;16.80;;;;;;;4.92;100.00;93996.47;5014169;28;20454;-89
2023/01/10 03:09:55;;;;;;;24.30;15.10;;;;;;;5.00;100.00;93975.06;5048673;28;20819;-89
2023/01/10 03:12:28;;;;;;;25.13;15.57;;;;;;;4.95;100.00;93970.22;5055474;28;20459;-89
2023/01/10 03:14:58;;;;;;;24.87;16.10;;;;;;;5.05;100.00;93979.91;5055334;28;20866;-89
2023/01/10 03:17:27;;;;;;;26.00;14.70;;;;;;;5.15;100.00;93980.84;5055729;28;20441;-89
2023/01/10 03:20:00;;;;;;;26.73;17.13;;;;;;;5.26;100.00;93988.63;5055310;28;20494;-89
2023/01/10 03:22:30;;;;;;;31.33;17.17;;;;;;;5.19;100.00;93984.84;5055688;28;20441;-89
2023/01/10 03:25:00;;;;;;;21.50;15.43;;;;;;;5.15;100.00;93980.84;5054825;28;21174;-89
2023/01/10 03:27:31;;;;;;;23.00;15.00;;;;;;;5.20;100.00;93999.50;5055253;28;20449;-89
2023/01/10 03:30:04;;;;;;;25.27;16.43;;;;;;;5.17;100.00;94010.13;5054373;28;20449;-89
2023/01/10 03:32:32;;;;;;;29.80;16.80;;;;;;;5.13;100.00;94006.13;5054954;28;20453;-89
2023/01/10 03:35:02;;;;;;;25.23;15.13;;;;;;;5.12;100.00;94004.47;5055365;28;20544;-88
2023/01/10 03:37:36;;;;;;;22.67;14.20;;;;;;;5.01;100.00;94004.50;5054502;28;20955;-89
2023/01/10 03:40:09;;;;;;;17.40;13.40;;;;;;;5.11;100.00;94000.22;5055098;28;20491;-88
2023/01/10 03:45:35;;;;;;;26.30;15.03;;;;;;;5.22;100.00;94008.84;5054773;28;20935;-88
2023/01/10 03:48:05;;;;;;;22.40;15.47;;;;;;;5.26;100.00;94014.66;5054947;28;20457;-89
2023/01/10 03:50:35;;;;;;;25.20;17.80;;;;;;;5.32;100.00;94008.97;5055205;28;20830;-89
2023/01/10 03:53:02;;;;;;;25.53;16.50;;;;;;;5.30;100.00;94010.84;5054763;28;20476;-88
2023/01/10 03:55:31;;;;;;;28.97;18.83;;;;;;;5.09;100.00;94012.50;5054730;28;20438;-88
2023/01/10 03:57:58;;;;;;;28.17;17.97;;;;;;;4.81;100.00;94006.84;5054783;28;20477;-89
2023/01/10 04:00:25;;;;;;;21.10;15.27;;;;;;;4.88;100.00;93995.03;5054244;28;20964;-89
2023/01/10 04:02:52;;;;;;;22.77;17.30;;;;;;;4.98;100.00;93997.75;5054905;28;20462;-89
2023/01/10 04:05:19;;;;;;;26.57;17.17;;;;;;;5.02;100.00;93982.75;5054640;28;20445;-87
2023/01/10 04:07:48;;;;;;;23.40;16.90;;;;;;;4.81;100.00;93962.66;5056525;28;20507;-88
2023/01/10 04:10:16;;;;;;;29.50;17.40;;;;;;;4.79;100.00;93933.38;5054545;28;20453;-89
2023/01/10 04:12:43;;;;;;;29.30;19.27;;;;;;;4.56;100.00;93934.31;5055058;28;20457;-88
2023/01/10 04:15:10;;;;;;;30.33;16.80;;;;;;;4.70;100.00;93944.47;5054394;28;20452;-88
2023/01/10 04:17:37;;;;;;;48.50;25.97;;;;;;;4.62;100.00;93939.03;5054038;28;20804;-88
2023/01/10 04:20:05;;;;;;;40.60;24.07;;;;;;;4.76;100.00;93944.00;5054595;28;20817;-88
2023/01/10 04:22:32;;;;;;;39.10;20.87;;;;;;;4.91;100.00;93939.38;5054526;28;20940;-88
2023/01/10 04:25:00;;;;;;;28.70;18.30;;;;;;;5.01;100.00;93927.31;5054674;28;20456;-88
2023/01/10 04:27:27;;;;;;;25.67;16.63;;;;;;;5.13;100.00;93952.34;5055037;28;20496;-88
2023/01/10 04:29:54;;;;;;;25.87;17.10;;;;;;;5.16;100.00;93982.47;5054704;28;20464;-88
2023/01/10 04:32:21;;;;;;;31.07;19.17;;;;;;;5.23;100.00;93996.69;5054128;28;20468;-88
2023/01/10 04:34:48;;;;;;;28.10;19.70;;;;;;;5.31;99.59;94014.28;5054475;28;20456;-88
2023/01/10 04:37:14;;;;;;;31.27;20.80;;;;;;;5.33;99.70;94021.00;5054285;28;20448;-86
2023/01/10 04:39:41;;;;;;;37.33;23.23;;;;;;;5.40;99.94;94016.16;5053884;28;20481;-88
2023/01/10 04:42:10;;;;;;;40.07;26.90;;;;;;;5.48;100.00;94016.38;5057615;28;20445;-88
2023/01/10 04:44:36;;;;;;;30.00;19.60;;;;;;;5.52;99.33;94010.81;5058181;28;20441;-89
2023/01/10 04:47:03;;;;;;;27.73;17.57;;;;;;;5.59;98.98;94009.38;5058365;28;20453;-89
2023/01/10 04:49:30;;;;;;;30.00;18.97;;;;;;;5.64;99.11;94011.63;5058662;28;20453;-89
2023/01/10 04:51:57;;;;;;;36.00;20.13;;;;;;;5.64;98.67;94016.00;5058282;28;20453;-88
2023/01/10 04:54:24;;;;;;;33.60;21.40;;;;;;;5.56;98.93;94008.81;5055551;28;20519;-88
2023/01/10 04:56:51;;;;;;;25.33;15.47;;;;;;;5.45;99.52;93994.03;5042327;28;20460;-88
2023/01/10 04:59:20;;;;;;;29.47;18.87;;;;;;;5.34;100.00;93993.22;5037772;28;20485;-88
2023/01/10 05:01:47;;;;;;;33.50;19.30;;;;;;;5.18;100.00;93984.00;5042888;28;20455;-88
2023/01/10 05:04:14;;;;;;;23.57;15.10;;;;;;;5.13;100.00;93982.72;5058177;28;20445;-88
2023/01/10 05:06:41;;;;;;;25.10;16.10;;;;;;;5.09;100.00;93981.31;5057860;28;20807;-88
2023/01/10 05:09:08;;;;;;;19.57;12.37;;;;;;;5.08;100.00;93975.28;5046288;28;20466;-88
2023/01/10 05:11:35;;;;;;;18.63;11.27;;;;;;;5.15;100.00;93970.44;5057079;28;20453;-88
2023/01/10 05:14:02;;;;;;;18.40;12.63;;;;;;;5.23;100.00;93968.91;5057896;28;20465;-88
2023/01/10 05:16:30;;;;;;;18.53;13.23;;;;;;;5.20;100.00;93944.88;5057356;28;20456;-88
2023/01/10 05:18:57;;;;;;;22.17;13.67;;;;;;;5.11;100.00;93937.81;5057317;28;20472;-88
2023/01/10 05:21:24;;;;;;;23.93;14.53;;;;;;;5.19;100.00;93936.25;5057322;28;20453;-88
2023/01/10 05:23:50;;;;;;;28.00;16.60;;;;;;;5.25;99.83;93951.41;5058083;28;20463;-89
2023/01/10 05:26:21;;;;;;;25.03;15.50;;;;;;;5.31;99.88;93954.47;5057723;28;20450;-89
2023/01/10 05:28:48;;;;;;;23.13;16.27;;;;;;;5.47;99.71;93960.06;5057755;28;20464;-85
2023/01/10 05:31:16;;;;;;;22.53;16.27;;;;;;;5.63;99.99;93967.50;5056931;28;20449;-86
2023/01/10 05:33:46;;;;;;;22.70;15.60;;;;;;;5.79;99.92;93973.13;5073083;28;20475;-88
2023/01/10 05:36:13;;;;;;;17.20;12.63;;;;;;;5.82;98.38;93976.31;5075770;28;20420;-87
2023/01/10 05:38:40;;;;;;;18.30;13.30;;;;;;;5.84;97.28;93971.81;5063555;28;20504;-87
2023/01/10 05:41:07;;;;;;;18.43;13.13;;;;;;;5.80;97.39;93983.41;5057448;28;20462;-88
2023/01/10 05:43:34;;;;;;;22.07;14.67;;;;;;;5.69;97.66;93995.63;5057455;28;20449;-88
2023/01/10 05:46:03;;;;;;;26.00;16.47;;;;;;;5.63;98.11;93998.72;5057054;28;20472;-89
2023/01/10 05:55:21;;;;;;;30.45;19.13;;;;;;;5.38;99.72;93974.66;5056335;28;20435;-86
2023/01/10 05:57:48;;;;;;;26.40;17.33;;;;;;;5.51;99.36;93972.75;5055825;28;20207;-83
2023/01/10 06:00:16;;;;;;;31.40;17.30;;;;;;;5.58;98.92;93976.50;5055630;28;21149;-83
2023/01/10 06:02:43;;;;;;;28.90;17.27;;;;;;;5.65;98.94;93984.63;5021038;28;20457;-82
2023/01/10 06:05:10;;;;;;;30.67;17.83;;;;;;;5.75;97.80;93984.72;5055626;28;20440;-83
2023/01/10 06:10:59;;;;;;;45.50;28.60;;;;;;;5.70;98.13;93981.66;5054849;28;20457;-86
2023/01/10 06:13:26;;;;;;;51.53;34.70;;;;;;;5.73;97.81;93986.63;5055580;28;20454;-85
2023/01/10 06:15:53;;;;;;;54.00;33.93;;;;;;;5.82;97.12;93998.91;5055950;28;20492;-89
2023/01/10 06:18:20;;;;;;;59.83;33.50;;;;;;;5.79;96.53;93988.75;5056226;28;20799;-89
2023/01/10 06:20:47;;;;;;;37.07;20.60;;;;;;;5.75;96.93;93987.31;5056348;28;20457;-87
2023/01/10 06:23:14;;;;;;;33.37;21.20;;;;;;;5.53;99.64;93986.47;5055900;28;20457;-83
2023/01/10 06:25:41;;;;;;;30.63;20.37;;;;;;;5.55;99.40;93984.56;5055152;28;20867;-83
2023/01/10 06:28:10;;;;;;;29.70;23.07;;;;;;;5.41;100.00;93982.22;5055436;28;20438;-84
2023/01/10 06:30:37;;;;;;;27.90;18.50;;;;;;;5.51;100.00;93985.75;5055073;28;20436;-84
2023/01/10 06:33:05;;;;;;;27.20;17.37;;;;;;;5.58;100.00;93997.31;5055034;28;20865;-84
2023/01/10 06:35:32;;;;;;;28.90;21.63;;;;;;;5.37;100.00;93991.22;5036357;28;20454;-84
2023/01/10 06:37:59;;;;;;;26.40;18.23;;;;;;;5.46;100.00;93985.25;5055067;28;20483;-85
2023/01/10 06:40:27;;;;;;;28.10;18.40;;;;;;;5.49;100.00;93979.84;5054904;28;20504;-85
2023/01/10 06:53:02;;;;;;;20.27;14.83;;;;;;;5.48;100.00;93967.75;5053902;28;20831;-84
2023/01/10 06:55:30;;;;;;;22.87;13.90;;;;;;;5.58;100.00;93967.88;5054409;28;20437;-85
2023/01/10 06:57:57;;;;;;;24.20;16.23;;;;;;;5.62;100.00;93978.84;5054394;28;20446;-85
2023/01/10 07:00:26;;;;;;;22.23;18.63;;;;;;;5.75;100.00;93966.50;5054163;28;20983;-84
2023/01/10 07:09:37;;;;;;;29.10;17.10;;;;;;;6.17;100.00;93965.66;5054210;28;20521;-85
2023/01/10 07:12:04;;;;;;;22.47;14.60;;;;;;;6.17;100.00;93972.63;5054576;28;20440;-84
2023/01/10 07:14:31;;;;;;;23.13;14.80;;;;;;;6.12;100.00;93973.03;5057415;28;20444;-85
2023/01/10 07:16:58;;;;;;;29.03;15.60;;;;;;;6.13;100.00;93974.66;5055817;28;20435;-84
2023/01/10 07:19:25;;;;;;;29.13;18.03;;;;;;;6.19;100.00;93971.56;5061738;28;20485;-82
2023/01/10 07:21:52;;;;;;;21.80;14.27;;;;;;;6.02;100.00;93964.28;5070547;28;20445;-82
2023/01/10 07:24:18;;;;;;;26.43;17.20;;;;;;;6.06;100.00;93962.25;5060393;28;20441;-84
2023/01/10 07:26:47;;;;;;;30.83;17.97;;;;;;;6.18;100.00;93969.06;5054910;28;20465;-85
2023/01/10 07:29:13;;;;;;;33.93;17.87;;;;;;;6.29;100.00;93963.78;5047482;28;20454;-85
2023/01/10 07:31:40;;;;;;;24.55;17.65;;;;;;;6.10;100.00;93954.09;5050711;28;20453;-86
2023/01/10 07:34:07;;;;;;;26.17;17.00;;;;;;;6.36;100.00;93954.53;5000379;28;20496;-85
2023/01/10 07:36:36;;;;;;;30.17;17.50;;;;;;;6.46;100.00;93959.78;5034123;28;20434;-85
2023/01/10 07:39:03;;;;;;;29.57;16.53;;;;;;;6.51;100.00;93947.19;5034437;28;20577;-85
2023/01/10 07:41:30;;;;;;;30.23;16.43;;;;;;;6.59;100.00;93960.41;5033902;28;20466;-88
2023/01/10 07:43:58;;;;;;;30.00;17.13;;;;;;;6.63;100.00;93956.59;5034235;28;20454;-87
2023/01/10 07:46:25;;;;;;;25.60;17.07;;;;;;;6.64;100.00;93937.38;5034695;28;20456;-88
2023/01/10 07:48:52;;;;;;;37.20;18.80;;;;;;;6.53;100.00;93927.88;5046012;28;20797;-87
2023/01/10 07:51:19;;;;;;;60.83;27.13;;;;;;;6.24;100.00;93924.28;5056672;28;20472;-86
2023/01/10 07:53:46;;;;;;;48.17;22.43;;;;;;;6.45;100.00;93934.69;5038320;28;20475;-86
2023/01/10 07:56:13;;;;;;;30.10;17.13;;;;;;;6.27;100.00;93947.47;5055361;28;20457;-87
2023/01/10 07:58:39;;;;;;;44.23;25.20;;;;;;;6.25;100.00;93940.72;5054646;28;20437;-87
2023/01/10 08:01:08;;;;;;;46.00;26.10;;;;;;;6.26;100.00;93939.78;5054764;28;20441;-87
2023/01/10 08:03:35;;;;;;;36.70;20.57;;;;;;;6.34;100.00;93942.56;5054397;28;20422;-86
2023/01/10 08:06:04;;;;;;;26.80;19.30;;;;;;;6.39;100.00;93933.44;5055102;28;20492;-86
2023/01/10 08:08:40;;;;;;;38.60;18.70;;;;;;;6.53;100.00;93935.69;5054752;28;20456;-85
2023/01/10 08:11:07;;;;;;;34.77;19.07;;;;;;;6.56;100.00;93936.38;5054082;28;20511;-85
2023/01/10 08:13:34;;;;;;;35.07;20.67;;;;;;;6.65;100.00;93926.03;5053844;28;20743;-87
2023/01/10 08:16:05;;;;;;;41.73;27.23;;;;;;;6.76;100.00;93928.53;5053816;28;20535;-87
2023/01/10 08:18:34;;;;;;;35.03;24.00;;;;;;;6.82;100.00;93921.97;5050123;28;20860;-87
2023/01/10 08:21:02;;;;;;;38.80;24.10;;;;;;;6.91;100.00;93923.78;5046563;28;20468;-87
2023/01/10 08:23:31;;;;;;;37.57;22.10;;;;;;;6.98;100.00;93913.66;5052969;28;20492;-85
2023/01/10 08:25:59;;;;;;;34.73;19.37;;;;;;;7.03;100.00;93914.09;5050599;28;20458;-88
2023/01/10 08:28:26;;;;;;;25.10;18.60;;;;;;;7.00;100.00;93898.72;5051705;28;21423;-86
2023/01/10 08:30:54;;;;;;;32.20;18.47;;;;;;;7.02;100.00;93904.63;5052447;28;20449;-87
2023/01/10 08:33:22;;;;;;;31.00;19.63;;;;;;;6.96;100.00;93903.38;5053503;28;20449;-87
2023/01/10 08:35:51;;;;;;;38.60;24.67;;;;;;;6.95;100.00;93908.72;5053247;28;20476;-88
2023/01/10 08:38:18;;;;;;;42.13;24.27;;;;;;;6.97;100.00;93898.97;5052437;28;20470;-86
2023/01/10 08:40:44;;;;;;;31.93;20.70;;;;;;;6.94;100.00;93891.38;5052423;28;20489;-86
2023/01/10 08:43:13;;;;;;;18.30;11.70;;;;;;;6.78;100.00;93876.25;5053491;28;20442;-86
2023/01/10 08:45:40;;;;;;;25.03;16.17;;;;;;;6.63;100.00;93869.75;5053341;28;20453;-87
2023/01/10 08:48:08;;;;;;;22.20;16.77;;;;;;;6.81;100.00;93870.78;5052541;28;20529;-88
2023/01/10 08:50:35;;;;;;;23.30;15.70;;;;;;;6.98;100.00;93866.72;5052426;28;20540;-85
2023/01/10 08:53:04;;;;;;;20.93;15.27;;;;;;;7.11;100.00;93857.69;5052882;28;20474;-86
2023/01/10 08:55:34;;;;;;;23.03;15.07;;;;;;;7.24;100.00;93864.44;5053126;28;20457;-87
2023/01/10 08:58:01;;;;;;;23.40;14.57;;;;;;;7.23;100.00;93868.84;5052990;28;20537;-87
2023/01/10 09:00:28;;;;;;;35.90;22.07;;;;;;;7.10;100.00;93858.63;5053665;28;20481;-86
2023/01/10 09:02:55;;;;;;;36.30;23.80;;;;;;;7.00;100.00;93863.03;5052937;28;20465;-87
2023/01/10 09:05:24;;;;;;;39.40;24.30;;;;;;;6.99;100.00;93865.75;5053260;28;20443;-86
2023/01/10 09:07:51;;;;;;;44.07;27.07;;;;;;;7.03;100.00;93854.09;5055292;28;20442;-88
2023/01/10 09:10:21;;;;;;;52.93;30.97;;;;;;;7.14;100.00;93853.97;5053685;28;21251;-87
2023/01/10 09:13:00;;;;;;;42.57;31.20;;;;;;;7.18;100.00;93849.31;5053182;28;20504;-86
2023/01/10 09:15:30;;;;;;;44.47;29.30;;;;;;;7.13;100.00;93858.38;5053585;28;20450;-87
2023/01/10 09:17:57;;;;;;;42.50;26.00;;;;;;;7.08;100.00;93857.94;5052104;28;20439;-89
2023/01/10 09:20:26;;;;;;;38.33;26.00;;;;;;;6.87;100.00;93856.38;5052531;28;20485;-87
2023/01/10 09:22:53;;;;;;;43.00;25.00;;;;;;;6.92;100.00;93854.19;5054072;28;20443;-89
2023/01/10 09:25:22;;;;;;;52.63;30.33;;;;;;;6.88;100.00;93840.59;5052835;28;20466;-86
2023/01/10 09:27:55;;;;;;;45.57;24.40;;;;;;;6.87;100.00;93838.13;5053970;28;20463;-87
2023/01/10 09:30:22;;;;;;;49.37;30.60;;;;;;;6.79;100.00;93844.00;5056462;28;20477;-87
2023/01/10 09:32:50;;;;;;;54.87;29.43;;;;;;;6.83;100.00;93846.22;5056176;28;20449;-85
2023/01/10 09:35:17;;;;;;;42.53;25.63;;;;;;;6.93;100.00;93845.41;5056215;28;20442;-85
2023/01/10 09:37:44;;;;;;;46.07;29.17;;;;;;;6.98;100.00;93840.63;5058495;28;20475;-85
2023/01/10 09:40:16;;;;;;;44.80;29.63;;;;;;;7.00;100.00;93830.91;5055361;28;20998;-85
2023/01/10 09:42:58;;;;;;;108.80;83.70;;;;;;;6.87;100.00;93817.28;5059409;28;20496;-88
2023/01/10 09:45:32;;;;;;;46.23;26.80;;;;;;;6.74;100.00;93805.31;5057566;28;20443;-86
2023/01/10 09:48:03;;;;;;;46.50;28.10;;;;;;;6.78;100.00;93806.69;5056130;28;20856;-86
2023/01/10 09:50:40;;;;;;;42.87;23.10;;;;;;;6.71;100.00;93808.19;5055580;28;20468;-85
2023/01/10 09:53:14;;;;;;;34.73;21.97;;;;;;;6.78;100.00;93809.31;5056320;28;20487;-86
2023/01/10 09:55:42;;;;;;;37.57;24.30;;;;;;;6.86;100.00;93795.59;5056481;28;20507;-87
2023/01/10 09:58:15;;;;;;;42.57;25.17;;;;;;;6.90;100.00;93803.97;5056848;28;20458;-86
2023/01/10 10:00:49;;;;;;;52.47;27.57;;;;;;;6.90;100.00;93791.75;5055694;28;20569;-87
2023/01/10 10:03:25;;;;;;;55.80;34.73;;;;;;;6.76;100.00;93797.34;5056587;28;20446;-86
2023/01/10 10:05:52;;;;;;;52.43;34.57;;;;;;;6.86;100.00;93795.59;5057021;28;20457;-86
2023/01/10 10:08:20;;;;;;;47.17;29.10;;;;;;;6.78;100.00;93787.63;5056444;28;20457;-87
2023/01/10 10:10:58;;;;;;;37.93;24.67;;;;;;;6.88;100.00;93788.44;5055308;28;20445;-86
2023/01/10 10:13:36;;;;;;;45.60;27.40;;;;;;;6.84;100.00;93787.06;5057016;28;20453;-86
2023/01/10 10:16:14;;;;;;;39.77;24.10;;;;;;;6.94;100.00;93798.38;5067355;28;20966;-87
2023/01/10 10:18:55;;;;;;;44.73;27.00;;;;;;;7.04;100.00;93793.16;5066828;28;20457;-87
2023/01/10 10:21:32;;;;;;;49.07;29.43;;;;;;;7.08;100.00;93789.31;5055754;28;20571;-88
2023/01/10 10:24:19;;;;;;;48.23;31.80;;;;;;;7.03;100.00;93797.53;5056367;28;20997;-85
2023/01/10 10:26:56;;;;;;;55.07;32.27;;;;;;;7.02;100.00;93793.28;5055940;28;20453;-86
2023/01/10 10:29:54;;;;;;;50.30;29.60;;;;;;;7.03;100.00;93794.09;5054996;28;20498;-85
2023/01/10 10:32:37;;;;;;;51.10;33.37;;;;;;;6.90;100.00;93777.88;5033125;28;20438;-85
2023/01/10 10:35:41;;;;;;;59.83;38.67;;;;;;;6.91;100.00;93769.09;5033004;28;20800;-89
2023/01/10 10:38:15;;;;;;;53.83;34.40;;;;;;;6.83;100.00;93770.59;5014921;28;20678;-85
2023/01/10 10:40:45;;;;;;;60.90;37.80;;;;;;;6.94;100.00;93771.44;5013173;28;20507;-85
2023/01/10 10:43:20;;;;;;;59.73;37.77;;;;;;;7.01;100.00;93772.56;5012677;28;20443;-85
2023/01/10 10:45:53;;;;;;;64.97;40.77;;;;;;;6.98;100.00;93767.63;5012041;28;20451;-85
2023/01/10 10:48:25;;;;;;;64.70;42.13;;;;;;;6.95;100.00;93757.47;5012785;28;20452;-86
2023/01/10 10:51:00;;;;;;;62.70;39.13;;;;;;;6.97;100.00;93756.38;5016399;28;20910;-85
2023/01/10 10:53:27;;;;;;;61.20;39.53;;;;;;;6.95;100.00;93754.84;5032502;28;20557;-86
2023/01/10 10:55:54;;;;;;;66.03;42.57;;;;;;;6.99;100.00;93753.63;5032589;28;20995;-86
2023/01/10 11:05:14;;;;;;;59.00;35.50;;;;;;;7.11;100.00;93752.50;5012040;28;20463;-85
2023/01/10 11:07:41;;;;;;;62.07;38.07;;;;;;;7.03;100.00;93740.16;5012640;28;20861;-85
2023/01/10 11:13:00;;;;;;;77.20;41.00;;;;;;;6.93;100.00;93738.50;5034316;28;20410;-83
2023/01/10 11:15:37;;;;;;;60.10;35.10;;;;;;;6.95;100.00;93734.81;5034747;28;20512;-85
2023/01/10 11:18:06;;;;;;;63.40;43.05;;;;;;;7.15;100.00;93739.06;5033319;28;20460;-85
2023/01/10 11:20:34;;;;;;;52.60;34.87;;;;;;;7.06;100.00;93739.06;5034548;28;20736;-85
2023/01/10 11:23:01;;;;;;;45.70;32.50;;;;;;;6.98;100.00;93731.09;5034494;28;20439;-84
2023/01/10 11:25:28;;;;;;;59.70;34.67;;;;;;;7.01;100.00;93730.84;5034754;28;20996;-84
2023/01/10 11:27:59;;;;;;;54.33;37.83;;;;;;;7.05;100.00;93730.41;5034146;28;20441;-85
2023/01/10 11:30:30;;;;;;;55.77;35.27;;;;;;;6.98;100.00;93736.31;5034493;28;20435;-84
2023/01/10 11:33:00;;;;;;;57.33;35.63;;;;;;;6.95;100.00;93734.00;5034321;28;20440;-84
2023/01/10 11:35:29;;;;;;;62.20;36.50;;;;;;;7.00;100.00;93726.56;5033967;28;20500;-84
2023/01/10 11:38:02;;;;;;;57.93;36.77;;;;;;;6.98;100.00;93738.94;5034611;28;20505;-84
2023/01/10 11:40:30;;;;;;;58.17;40.27;;;;;;;6.90;100.00;93728.34;5034185;28;20512;-84
2023/01/10 11:42:58;;;;;;;57.07;35.63;;;;;;;6.91;100.00;93728.19;5034230;28;20443;-86
2023/01/10 11:45:31;;;;;;;53.97;33.87;;;;;;;6.97;100.00;93730.28;5034298;28;20806;-86
2023/01/10 11:48:06;;;;;;;51.53;32.20;;;;;;;7.00;100.00;93739.63;5034032;28;20856;-86
2023/01/10 11:50:37;;;;;;;57.70;34.80;;;;;;;6.91;100.00;93735.19;5033243;28;20512;-86
2023/01/10 11:53:07;;;;;;;59.93;34.53;;;;;;;6.87;100.00;93734.66;5033247;28;20475;-85
2023/01/10 11:55:37;;;;;;;53.83;35.03;;;;;;;6.87;100.00;93734.66;5032878;28;20446;-86
2023/01/10 11:58:08;;;;;;;53.87;32.30;;;;;;;6.81;100.00;93723.00;5033085;28;20949;-85
2023/01/10 12:00:39;;;;;;;60.90;36.13;;;;;;;6.79;100.00;93724.91;5032743;28;20551;-86
2023/01/10 12:03:25;;;;;;;55.33;33.47;;;;;;;6.76;100.00;93722.56;5030851;28;20438;-85
2023/01/10 12:05:55;;;;;;;51.00;33.97;;;;;;;6.77;100.00;93723.41;5032692;28;20442;-86
2023/01/10 12:08:28;;;;;;;59.17;35.60;;;;;;;6.76;100.00;93722.56;5033127;28;20815;-86
2023/01/10 12:11:01;;;;;;;51.10;32.57;;;;;;;6.77;100.00;93721.63;5030529;28;20516;-86
2023/01/10 12:13:29;;;;;;;52.93;31.40;;;;;;;6.75;100.00;93722.72;5032937;28;20478;-84
2023/01/10 12:16:17;;;;;;;61.20;38.77;;;;;;;6.81;100.00;93711.75;5032729;28;20447;-85
2023/01/10 12:18:43;;;;;;;55.53;34.00;;;;;;;6.82;100.00;93714.22;5032631;28;20443;-86